Grenchen, Switzerland
Current Conditions -  °F | °C
As of 8:50 AM on Wednesday 26 Nov 2014 (Local Time) from LSZG Reporting Station
Haze Haze  
Wind Chill: 46°   Ceiling: 1000
Heat Index: 46°   Visibility: 3mi
Dew Point: 46°   Wind: 1mph
Humidity: 100%   Direction: 70°ENE
Pressure: 29.97"   Gusts: NA
Location:  47.19°N, 7.39°E
Report Text: LSZG 260750Z 07001KT 5000 BR OVC010 08/08 Q1015 NOSIG
Loading
Personal Weather Stations






























Interactive Weather Map New forecast layout! Learn more

10-Day Weather Forecast

Advertisements
Track Severe Weather on mobile